createdAt,value
2018-02-15T00:00:11.877Z,12.90
2018-02-15T00:02:40.357Z,13.07
2018-02-15T00:05:09.011Z,13.00
2018-02-15T00:07:36.877Z,13.02
2018-02-15T00:10:04.745Z,14.30
2018-02-15T00:12:32.612Z,12.57
2018-02-15T00:15:00.480Z,12.23
2018-02-15T00:17:28.347Z,12.57
2018-02-15T00:19:56.067Z,13.07
2018-02-15T00:22:23.882Z,11.63
2018-02-15T00:24:51.747Z,12.60
2018-02-15T00:27:19.462Z,11.45
2018-02-15T00:29:47.174Z,11.88
2018-02-15T00:32:15.038Z,11.12
2018-02-15T00:34:42.906Z,12.05
2018-02-15T00:37:10.773Z,11.25
2018-02-15T00:39:38.640Z,10.82
2018-02-15T00:42:06.346Z,12.48
2018-02-15T00:44:34.826Z,12.48
2018-02-15T00:47:03.473Z,12.35
2018-02-15T00:49:31.338Z,14.05
2018-02-15T00:51:59.206Z,13.98
2018-02-15T00:54:27.073Z,12.40
2018-02-15T00:56:54.940Z,13.07
2018-02-15T00:59:22.811Z,11.30
2018-02-15T01:01:50.675Z,11.80
2018-02-15T01:04:18.542Z,13.55
2018-02-15T01:06:46.412Z,13.30
2018-02-15T01:09:14.276Z,13.25
2018-02-15T01:11:42.147Z,13.90
2018-02-15T01:14:09.857Z,13.20
2018-02-15T01:16:38.493Z,15.30
2018-02-15T01:19:06.266Z,12.27
2018-02-15T01:21:34.128Z,13.75
2018-02-15T01:24:01.930Z,13.43
2018-02-15T01:26:31.294Z,12.30
2018-02-15T01:28:59.094Z,13.52
2018-02-15T01:31:27.744Z,12.80
2018-02-15T01:33:55.614Z,14.65
2018-02-15T01:36:23.482Z,14.07
2018-02-15T01:38:51.195Z,15.13
2018-02-15T01:41:19.665Z,13.00
2018-02-15T01:43:48.313Z,14.85
2018-02-15T01:46:16.181Z,14.77
2018-02-15T01:48:44.047Z,14.07
2018-02-15T01:51:11.913Z,12.37
2018-02-15T01:53:39.614Z,15.18
2018-02-15T01:56:08.094Z,15.75
2018-02-15T01:58:36.577Z,14.75
2018-02-15T02:01:05.128Z,14.77
2018-02-15T02:03:32.991Z,15.23
2018-02-15T02:06:00.700Z,15.55
2018-02-15T02:08:29.177Z,14.95
2018-02-15T02:10:57.823Z,18.33
2018-02-15T02:13:25.690Z,18.12
2018-02-15T02:15:53.556Z,15.65
2018-02-15T02:18:21.424Z,15.85
2018-02-15T02:20:50.110Z,17.02
2018-02-15T02:23:17.978Z,16.48
2018-02-15T02:25:45.776Z,17.25
2018-02-15T02:28:14.327Z,15.52
2018-02-15T02:30:42.809Z,14.40
2018-02-15T02:33:10.526Z,16.48
2018-02-15T02:35:38.338Z,14.73
2018-02-15T02:38:06.208Z,14.90
2018-02-15T02:40:34.077Z,16.42
2018-02-15T02:43:01.941Z,17.30
2018-02-15T02:45:29.809Z,15.70
2018-02-15T02:47:57.675Z,16.67
2018-02-15T02:50:25.542Z,15.65
2018-02-15T02:52:53.410Z,14.90
2018-02-15T02:55:21.117Z,15.50
2018-02-15T02:57:49.586Z,14.45
2018-02-15T03:00:18.074Z,14.85
2018-02-15T03:02:46.550Z,14.63
2018-02-15T03:05:15.021Z,14.38
2018-02-15T03:07:42.746Z,13.85
2018-02-15T03:10:10.461Z,15.80
2018-02-15T03:12:38.945Z,16.90
2018-02-15T03:15:07.594Z,15.85
2018-02-15T03:17:35.461Z,15.25
2018-02-15T03:20:03.328Z,15.25
2018-02-15T03:22:31.806Z,16.52
2018-02-15T03:24:59.510Z,16.20
2018-02-15T03:27:28.057Z,16.00
2018-02-15T03:29:55.762Z,16.25
2018-02-15T03:32:24.406Z,15.60
2018-02-15T03:34:52.274Z,17.30
2018-02-15T03:37:20.181Z,18.40
2018-02-15T03:39:48.662Z,17.87
2018-02-15T03:42:17.132Z,18.85
2018-02-15T03:44:44.845Z,15.95
2018-02-15T03:47:12.634Z,16.10
2018-02-15T03:49:40.499Z,16.75
2018-02-15T03:52:08.238Z,15.27
2018-02-15T03:54:35.980Z,16.60
2018-02-15T03:57:04.461Z,16.87
2018-02-15T03:59:32.960Z,17.92
2018-02-15T04:02:00.665Z,17.15
2018-02-15T04:04:28.374Z,17.42
2018-02-15T04:06:56.088Z,17.80
2018-02-15T04:09:23.953Z,17.20
2018-02-15T04:11:51.661Z,18.95
2018-02-15T04:14:19.410Z,17.15
2018-02-15T04:16:47.881Z,17.85
2018-02-15T04:19:16.370Z,18.65
2018-02-15T04:21:44.924Z,17.92
2018-02-15T04:24:12.792Z,17.95
2018-02-15T04:26:40.509Z,17.25
2018-02-15T04:29:08.978Z,18.08
2018-02-15T04:31:37.453Z,18.20
2018-02-15T04:34:05.924Z,17.85
2018-02-15T04:36:33.637Z,19.08
2018-02-15T04:39:01.429Z,18.98
2018-02-15T04:41:29.296Z,19.92
2018-02-15T04:43:56.996Z,17.60
2018-02-15T04:46:25.542Z,18.62
2018-02-15T04:48:53.340Z,18.52
2018-02-15T04:51:21.071Z,16.20
2018-02-15T04:53:48.778Z,18.80
2018-02-15T04:56:17.422Z,17.87
2018-02-15T04:58:45.288Z,17.08
2018-02-15T05:01:15.092Z,17.37
2018-02-15T05:03:42.805Z,17.42
2018-02-15T05:06:11.281Z,17.48
2018-02-15T05:08:39.762Z,16.75
2018-02-15T05:11:08.251Z,18.02
2018-02-15T05:13:35.975Z,17.33
2018-02-15T05:16:04.456Z,16.33
2018-02-15T05:18:32.969Z,17.08
2018-02-15T05:21:00.805Z,17.17
2018-02-15T05:23:28.521Z,16.48
2018-02-15T05:25:57.074Z,17.23
2018-02-15T05:28:24.781Z,16.90
2018-02-15T05:30:52.489Z,16.30
2018-02-15T05:33:20.193Z,16.35
2018-02-15T05:35:48.665Z,17.02
2018-02-15T05:38:17.138Z,16.08
2018-02-15T05:40:44.972Z,17.15
2018-02-15T05:43:12.770Z,17.75
2018-02-15T05:45:41.321Z,16.37
2018-02-15T05:48:09.188Z,16.62
2018-02-15T05:50:36.893Z,17.20
2018-02-15T05:53:05.365Z,16.80
2018-02-15T05:55:33.846Z,16.08
2018-02-15T05:58:01.559Z,16.98
2018-02-15T06:00:29.272Z,16.85
2018-02-15T06:02:56.978Z,16.90
2018-02-15T06:05:24.685Z,14.50
2018-02-15T06:07:52.536Z,15.48
2018-02-15T06:10:20.246Z,16.12
2018-02-15T06:12:48.717Z,17.15
2018-02-15T06:15:17.366Z,16.55
2018-02-15T06:17:45.233Z,17.37
2018-02-15T06:20:13.102Z,17.40
2018-02-15T06:22:40.808Z,16.00
2018-02-15T06:25:09.347Z,16.37
2018-02-15T06:27:37.149Z,15.82
2018-02-15T06:30:05.799Z,14.63
2018-02-15T06:32:33.512Z,13.55
2018-02-15T06:35:01.982Z,14.43
2018-02-15T06:37:30.527Z,14.70
2018-02-15T06:39:58.241Z,15.80
2018-02-15T06:42:26.713Z,15.00
2018-02-15T06:44:55.197Z,14.25
2018-02-15T06:47:23.839Z,14.43
2018-02-15T06:49:51.706Z,12.37
2018-02-15T06:52:19.574Z,13.68
2018-02-15T06:54:47.285Z,14.15
2018-02-15T06:57:15.776Z,14.20
2018-02-15T06:59:43.477Z,14.55
2018-02-15T07:02:11.349Z,14.35
2018-02-15T07:04:39.053Z,13.40
2018-02-15T07:07:07.653Z,13.68
2018-02-15T07:09:35.377Z,12.80
2018-02-15T07:12:03.089Z,14.80
2018-02-15T07:14:30.891Z,13.15
2018-02-15T07:16:58.758Z,14.43
2018-02-15T07:19:26.625Z,13.88
2018-02-15T07:21:54.492Z,14.82
2018-02-15T07:24:22.196Z,13.25
2018-02-15T07:26:50.670Z,11.50
2018-02-15T07:29:19.142Z,12.68
2018-02-15T07:31:46.984Z,11.50
2018-02-15T07:34:14.685Z,11.57
2018-02-15T07:36:43.186Z,12.02
2018-02-15T07:39:10.996Z,11.63
2018-02-15T07:41:38.705Z,10.70
2018-02-15T07:44:07.183Z,11.88
2018-02-15T07:46:35.827Z,12.65
2018-02-15T07:49:03.694Z,11.73
2018-02-15T07:51:31.441Z,11.57
2018-02-15T07:53:59.185Z,11.48
2018-02-15T07:56:26.989Z,11.70
2018-02-15T07:58:54.856Z,13.20
2018-02-15T08:01:22.724Z,11.70
2018-02-15T08:03:50.590Z,13.98
2018-02-15T08:06:18.458Z,13.00
2018-02-15T08:08:46.325Z,13.85
2018-02-15T08:11:14.192Z,15.80
2018-02-15T08:13:42.096Z,14.82
2018-02-15T08:16:10.643Z,15.82
2018-02-15T08:18:38.510Z,15.00
2018-02-15T08:21:06.377Z,15.98
2018-02-15T08:23:34.244Z,16.30
2018-02-15T08:26:02.136Z,15.50
2018-02-15T08:28:29.982Z,16.10
2018-02-15T08:30:57.744Z,15.40
2018-02-15T08:33:25.611Z,16.70
2018-02-15T08:35:53.480Z,16.37
2018-02-15T08:38:21.348Z,16.27
2018-02-15T08:40:49.213Z,14.55
2018-02-15T08:43:17.084Z,14.18
2018-02-15T08:45:44.948Z,14.50
2018-02-15T08:48:12.657Z,15.05
2018-02-15T08:50:41.149Z,16.60
2018-02-15T08:53:08.860Z,16.35
2018-02-15T08:55:36.724Z,16.50
2018-02-15T08:58:04.610Z,13.70
2018-02-15T09:00:32.458Z,13.95
2018-02-15T09:03:00.326Z,12.80
2018-02-15T09:05:28.193Z,13.55
2018-02-15T09:07:56.059Z,12.35
2018-02-15T09:10:23.927Z,14.38
2018-02-15T09:12:51.794Z,12.23
2018-02-15T09:15:19.660Z,12.32
2018-02-15T09:17:47.530Z,12.23
2018-02-15T09:20:15.395Z,13.15
2018-02-15T09:22:43.263Z,13.20
2018-02-15T09:25:10.968Z,11.75
2018-02-15T09:27:39.437Z,11.77
2018-02-15T09:30:07.274Z,14.02
2018-02-15T09:32:35.142Z,13.43
2018-02-15T09:35:03.009Z,12.35
2018-02-15T09:37:30.875Z,14.40
2018-02-15T09:39:58.743Z,12.20
2018-02-15T09:42:26.610Z,12.65
2018-02-15T09:44:54.477Z,12.88
2018-02-15T09:47:22.447Z,15.40
2018-02-15T09:49:50.315Z,13.50
2018-02-15T09:52:18.182Z,14.40
2018-02-15T09:54:46.048Z,12.68
2018-02-15T09:57:13.917Z,12.65
2018-02-15T09:59:41.785Z,12.35
2018-02-15T10:02:09.650Z,13.45
2018-02-15T10:04:37.518Z,12.95
2018-02-15T10:07:05.385Z,13.77
2018-02-15T10:09:33.253Z,12.02
2018-02-15T10:12:01.124Z,11.77
2018-02-15T10:14:28.987Z,12.00
2018-02-15T10:16:56.935Z,11.63
2018-02-15T10:19:24.720Z,12.25
2018-02-15T10:21:52.590Z,11.80
2018-02-15T10:24:20.455Z,12.55
2018-02-15T10:26:48.322Z,12.05
2018-02-15T10:29:16.193Z,12.45
2018-02-15T10:31:44.057Z,12.70
2018-02-15T10:34:11.926Z,13.73
2018-02-15T10:36:39.801Z,14.20
2018-02-15T10:39:08.375Z,13.15
2018-02-15T10:41:36.242Z,12.80
2018-02-15T10:44:04.109Z,12.60
2018-02-15T10:46:31.978Z,12.23
2018-02-15T10:48:59.844Z,12.52
2018-02-15T10:51:27.716Z,12.65
2018-02-15T10:53:55.578Z,13.50
2018-02-15T10:56:23.446Z,11.60
2018-02-15T10:58:51.312Z,12.07
2018-02-15T11:01:24.816Z,13.93
2018-02-15T11:03:58.246Z,12.75
2018-02-15T11:06:26.897Z,15.05
2018-02-15T11:08:54.765Z,14.05
2018-02-15T11:11:22.631Z,12.37
2018-02-15T11:13:50.497Z,13.25
2018-02-15T11:16:18.364Z,12.85
2018-02-15T11:18:46.231Z,13.95
2018-02-15T11:21:14.098Z,12.80
2018-02-15T11:23:41.967Z,12.82
2018-02-15T11:26:09.835Z,11.70
2018-02-15T11:28:37.700Z,12.32
2018-02-15T11:31:05.572Z,12.15
2018-02-15T11:33:33.436Z,12.95
2018-02-15T11:36:01.303Z,12.35
2018-02-15T11:38:29.169Z,12.57
2018-02-15T11:40:57.035Z,12.27
2018-02-15T11:43:24.904Z,12.15
2018-02-15T11:45:52.770Z,11.12
2018-02-15T11:48:20.638Z,12.85
2018-02-15T11:50:48.505Z,13.27
2018-02-15T11:53:16.372Z,13.27
2018-02-15T11:55:44.239Z,13.38
2018-02-15T11:58:17.943Z,13.43
2018-02-15T12:00:45.810Z,13.10
2018-02-15T12:03:13.677Z,16.15
2018-02-15T12:05:41.545Z,14.80
2018-02-15T12:08:09.412Z,14.00
2018-02-15T12:10:37.313Z,15.48
2018-02-15T12:13:05.966Z,14.07
2018-02-15T12:15:33.833Z,16.05
2018-02-15T12:18:01.703Z,15.32
2018-02-15T12:20:29.567Z,15.52
2018-02-15T12:22:57.434Z,14.87
2018-02-15T12:25:25.302Z,15.88
2018-02-15T12:27:53.168Z,15.90
2018-02-15T12:30:21.036Z,17.10
2018-02-15T12:32:48.904Z,17.95
2018-02-15T12:35:16.771Z,16.55
2018-02-15T12:37:44.489Z,18.60
2018-02-15T12:40:12.300Z,17.90
2018-02-15T12:42:40.168Z,18.58
2018-02-15T12:45:08.035Z,18.37
2018-02-15T12:47:35.902Z,16.80
2018-02-15T12:50:03.769Z,16.75
2018-02-15T12:52:31.739Z,17.45
2018-02-15T12:54:59.606Z,16.52
2018-02-15T12:57:27.481Z,17.27
2018-02-15T12:59:55.341Z,18.52
2018-02-15T13:02:23.207Z,18.05
2018-02-15T13:04:51.074Z,17.62
2018-02-15T13:07:18.941Z,18.70
2018-02-15T13:09:46.808Z,18.67
2018-02-15T13:12:26.451Z,17.10
2018-02-15T13:14:54.319Z,21.25
2018-02-15T13:17:22.186Z,19.27
2018-02-15T13:20:01.932Z,18.02
2018-02-15T13:22:41.474Z,20.70
2018-02-15T13:25:09.340Z,19.70
2018-02-15T13:27:57.995Z,19.42
2018-02-15T13:30:25.862Z,18.73
2018-02-15T13:32:53.730Z,18.95
2018-02-15T13:35:21.597Z,19.00
2018-02-15T13:37:49.464Z,19.75
2018-02-15T13:40:17.331Z,19.60
2018-02-15T13:42:45.198Z,19.35
2018-02-15T13:45:13.066Z,17.50
2018-02-15T13:47:40.933Z,18.08
2018-02-15T13:50:08.799Z,19.23
2018-02-15T13:52:36.667Z,20.30
2018-02-15T13:55:04.534Z,20.83
2018-02-15T13:57:32.404Z,20.67
2018-02-15T14:00:00.268Z,19.85
2018-02-15T14:02:28.136Z,19.30
2018-02-15T14:04:56.003Z,21.25
2018-02-15T14:07:23.870Z,20.62
2018-02-15T14:09:51.738Z,31.23
2018-02-15T14:12:19.604Z,20.50
2018-02-15T14:14:47.472Z,22.13
2018-02-15T14:17:15.339Z,21.20
2018-02-15T14:19:43.206Z,20.05
2018-02-15T14:22:11.073Z,20.95
2018-02-15T14:24:38.941Z,20.70
2018-02-15T14:27:06.808Z,21.15
2018-02-15T14:29:34.675Z,21.05
2018-02-15T14:32:02.542Z,19.67
2018-02-15T14:34:30.410Z,19.45
2018-02-15T14:36:58.277Z,20.23
2018-02-15T14:39:26.144Z,20.88
2018-02-15T14:41:54.012Z,21.02
2018-02-15T14:44:21.879Z,20.70
2018-02-15T14:46:49.746Z,22.15
2018-02-15T14:49:17.612Z,21.52
2018-02-15T14:51:45.479Z,22.73
2018-02-15T14:54:13.346Z,20.00
2018-02-15T14:56:41.214Z,21.17
2018-02-15T14:59:09.081Z,20.30
2018-02-15T15:01:36.949Z,19.17
2018-02-15T15:04:04.816Z,17.60
2018-02-15T15:06:32.686Z,19.90
2018-02-15T15:09:00.551Z,20.02
2018-02-15T15:11:28.418Z,20.95
2018-02-15T15:13:56.285Z,19.95
2018-02-15T15:16:24.152Z,19.15
2018-02-15T15:18:52.019Z,19.42
2018-02-15T15:21:19.887Z,19.23
2018-02-15T15:23:47.753Z,19.60
2018-02-15T15:26:15.621Z,18.83
2018-02-15T15:28:43.490Z,19.05
2018-02-15T15:31:11.356Z,20.15
2018-02-15T15:33:39.222Z,19.62
2018-02-15T15:36:07.089Z,20.65
2018-02-15T15:38:34.957Z,19.80
2018-02-15T15:41:02.825Z,19.58
2018-02-15T15:43:30.692Z,18.80
2018-02-15T15:45:58.559Z,18.87
2018-02-15T15:48:27.102Z,20.42
2018-02-15T15:50:54.907Z,18.87
2018-02-15T15:53:22.613Z,18.73
2018-02-15T15:55:51.085Z,19.70
2018-02-15T15:58:19.561Z,20.33
2018-02-15T16:00:47.276Z,19.70
2018-02-15T16:03:15.005Z,18.33
2018-02-15T16:05:43.481Z,20.33
2018-02-15T16:08:12.131Z,19.65
2018-02-15T16:10:39.841Z,19.65
2018-02-15T16:13:07.657Z,19.37
2018-02-15T16:15:35.526Z,19.40
2018-02-15T16:18:03.238Z,18.20
2018-02-15T16:20:30.958Z,20.00
2018-02-15T16:22:58.665Z,20.40
2018-02-15T16:25:26.378Z,20.30
2018-02-15T16:27:54.085Z,21.80
2018-02-15T16:30:22.729Z,20.98
2018-02-15T16:32:50.445Z,20.62
2018-02-15T16:35:18.258Z,18.48
2018-02-15T16:37:46.742Z,20.67
2018-02-15T16:40:14.608Z,19.67
2018-02-15T16:42:42.373Z,19.30
2018-02-15T16:45:10.239Z,19.35
2018-02-15T16:47:37.953Z,18.10
2018-02-15T16:50:05.665Z,20.02
2018-02-15T16:52:33.403Z,19.70
2018-02-15T16:55:01.116Z,18.37
2018-02-15T16:57:28.961Z,19.77
2018-02-15T16:59:56.831Z,19.23
2018-02-15T17:02:24.695Z,19.45
2018-02-15T17:05:09.665Z,19.27
2018-02-15T17:07:37.402Z,19.00
2018-02-15T17:10:05.166Z,17.20
2018-02-15T17:12:32.895Z,17.60
2018-02-15T17:15:01.383Z,17.75
2018-02-15T17:17:29.870Z,19.50
2018-02-15T17:19:58.362Z,19.62
2018-02-15T17:22:26.082Z,19.65
2018-02-15T17:24:53.801Z,18.50
2018-02-15T17:27:21.518Z,23.77
2018-02-15T17:29:49.358Z,20.70
2018-02-15T17:32:17.228Z,19.60
2018-02-15T17:34:44.993Z,20.33
2018-02-15T17:37:12.789Z,21.17
2018-02-15T17:39:40.522Z,19.50
2018-02-15T17:42:08.250Z,19.95
2018-02-15T17:44:35.977Z,20.10
2018-02-15T17:47:03.710Z,20.65
2018-02-15T17:49:31.595Z,19.90
2018-02-15T17:51:59.325Z,20.10
2018-02-15T17:54:27.062Z,19.30
2018-02-15T17:56:54.879Z,21.95
2018-02-15T17:59:22.614Z,20.83
2018-02-15T18:01:50.407Z,20.75
2018-02-15T18:04:18.275Z,22.13
2018-02-15T18:06:45.997Z,21.77
2018-02-15T18:09:13.737Z,18.95
2018-02-15T18:11:42.285Z,21.23
2018-02-15T18:14:10.153Z,20.70
2018-02-15T18:16:38.028Z,22.73
2018-02-15T18:19:05.888Z,22.10
2018-02-15T18:21:33.613Z,22.10
2018-02-15T18:24:01.370Z,22.45
2018-02-15T18:26:29.090Z,22.95
2018-02-15T18:28:56.816Z,24.60
2018-02-15T18:31:24.538Z,22.33
2018-02-15T18:33:52.258Z,23.17
2018-02-15T18:36:19.989Z,23.62
2018-02-15T18:38:47.714Z,23.55
2018-02-15T18:41:15.591Z,22.62
2018-02-15T18:43:43.433Z,22.70
2018-02-15T18:46:11.302Z,21.05
2018-02-15T18:48:39.168Z,21.80
2018-02-15T18:51:06.933Z,24.63
2018-02-15T18:53:34.800Z,21.80
2018-02-15T18:56:02.525Z,24.08
2018-02-15T18:58:30.255Z,23.23
2018-02-15T19:00:58.776Z,22.75
2018-02-15T19:03:26.679Z,24.12
2018-02-15T19:05:54.549Z,25.37
2018-02-15T19:08:22.284Z,22.73
2018-02-15T19:10:50.178Z,24.58
2018-02-15T19:13:18.046Z,25.67
2018-02-15T19:15:45.769Z,28.38
2018-02-15T19:18:13.678Z,26.48
2018-02-15T19:20:41.399Z,25.17
2018-02-15T19:23:09.223Z,24.02
2018-02-15T19:25:36.940Z,22.52
2018-02-15T19:28:04.877Z,23.60
2018-02-15T19:30:33.358Z,25.75
2018-02-15T19:33:01.838Z,24.90
2018-02-15T19:35:30.490Z,24.80
2018-02-15T19:37:58.210Z,25.20
2018-02-15T19:40:25.917Z,23.58
2018-02-15T19:42:53.626Z,22.48
2018-02-15T19:45:22.101Z,24.00
2018-02-15T19:47:50.581Z,22.73
2018-02-15T19:50:19.230Z,25.75
2018-02-15T19:52:46.963Z,25.37
2018-02-15T19:55:14.674Z,23.85
2018-02-15T19:57:42.628Z,25.80
2018-02-15T20:00:10.371Z,25.75
2018-02-15T20:02:38.076Z,28.27
2018-02-15T20:05:05.801Z,28.55
2018-02-15T20:07:33.585Z,29.65
2018-02-15T20:10:01.298Z,27.50
2018-02-15T20:12:29.015Z,28.98
2018-02-15T20:14:56.728Z,26.55
2018-02-15T20:17:24.442Z,28.23
2018-02-15T20:19:58.041Z,25.95
2018-02-15T20:22:26.729Z,26.95
2018-02-15T20:24:54.595Z,24.87
2018-02-15T20:27:27.991Z,26.62
2018-02-15T20:29:56.478Z,23.17
2018-02-15T20:32:24.203Z,21.75
2018-02-15T20:34:51.925Z,21.27
2018-02-15T20:37:19.698Z,24.12
2018-02-15T20:39:53.934Z,25.55
2018-02-15T20:42:21.749Z,24.05
2018-02-15T20:44:49.469Z,24.58
2018-02-15T20:47:17.201Z,24.37
2018-02-15T20:50:00.687Z,22.50
2018-02-15T20:52:33.986Z,24.80
2018-02-15T20:55:07.608Z,23.27
2018-02-15T20:57:35.337Z,21.98
2018-02-15T21:00:03.240Z,23.12
2018-02-15T21:02:31.362Z,23.70
2018-02-15T21:04:59.087Z,25.45
2018-02-15T21:07:26.945Z,24.92
2018-02-15T21:09:54.670Z,26.05
2018-02-15T21:12:22.477Z,23.87
2018-02-15T21:14:50.344Z,23.80
2018-02-15T21:17:18.215Z,25.05
2018-02-15T21:19:46.081Z,25.60
2018-02-15T21:22:13.819Z,23.15
2018-02-15T21:24:41.538Z,24.05
2018-02-15T21:27:10.089Z,23.15
2018-02-15T21:29:37.814Z,24.50
2018-02-15T21:32:05.619Z,23.50
2018-02-15T21:34:33.341Z,26.90
2018-02-15T21:37:01.069Z,24.23
2018-02-15T21:39:28.912Z,26.30
2018-02-15T21:41:56.780Z,25.80
2018-02-15T21:44:24.505Z,25.25
2018-02-15T21:46:52.242Z,26.87
2018-02-15T21:49:20.733Z,33.63
2018-02-15T21:51:49.225Z,34.00
2018-02-15T21:54:16.953Z,28.33
2018-02-15T21:56:44.685Z,24.70
2018-02-15T21:59:12.437Z,25.90
2018-02-15T22:01:40.165Z,25.60
2018-02-15T22:04:08.666Z,24.80
2018-02-15T22:06:36.476Z,25.00
2018-02-15T22:09:04.367Z,24.33
2018-02-15T22:11:32.087Z,23.48
2018-02-15T22:13:59.874Z,24.65
2018-02-15T22:16:27.607Z,36.30
2018-02-15T22:18:55.354Z,28.52
2018-02-15T22:21:23.090Z,42.10
2018-02-15T22:23:50.826Z,35.28
2018-02-15T22:26:18.561Z,36.08
2018-02-15T22:28:46.362Z,33.17
2018-02-15T22:31:14.071Z,34.05
2018-02-15T22:33:42.563Z,35.97
2018-02-15T22:36:10.375Z,34.45
2018-02-15T22:38:38.242Z,39.25
2018-02-15T22:41:05.958Z,39.13
2018-02-15T22:43:33.675Z,42.10
2018-02-15T22:46:01.536Z,35.20
2018-02-15T22:48:29.269Z,36.50
2018-02-15T22:50:57.065Z,38.35
2018-02-15T22:53:24.932Z,34.75
2018-02-15T22:55:52.799Z,34.67
2018-02-15T22:58:20.518Z,31.60
2018-02-15T23:00:48.239Z,32.97
2018-02-15T23:03:15.957Z,28.05
2018-02-15T23:05:43.661Z,27.40
2018-02-15T23:08:11.521Z,29.05
2018-02-15T23:10:39.389Z,29.60
2018-02-15T23:13:07.256Z,25.88
2018-02-15T23:15:34.974Z,25.40
2018-02-15T23:18:02.786Z,24.65
2018-02-15T23:20:30.498Z,24.98
2018-02-15T23:22:58.211Z,25.55
2018-02-15T23:25:25.945Z,25.67
2018-02-15T23:27:53.743Z,22.25
2018-02-15T23:30:21.461Z,23.55
2018-02-15T23:32:49.173Z,22.27
2018-02-15T23:35:16.889Z,25.27
2018-02-15T23:37:44.701Z,27.48
2018-02-15T23:40:12.569Z,24.87
2018-02-15T23:42:40.435Z,23.38
2018-02-15T23:45:08.305Z,23.20
2018-02-15T23:47:36.169Z,23.60
2018-02-15T23:50:04.037Z,26.70
2018-02-15T23:52:31.904Z,24.10
2018-02-15T23:54:59.773Z,23.05
2018-02-15T23:57:27.639Z,23.52
2018-02-15T23:59:55.507Z,24.65
